• Join FlightAware (Why Join?)
  • Login
  • US Flag 
06:37AM EDT


 

Airport Tracker/Info


-or-


 

Live Flight TrackerFlight Track Log ✈ CHH7142 ✈ 04-Sep-2014 ✈ ZUUU / CTU - ZBAA / PEK

Flight Track Log - Related Links

Times and Time Zones

All times are in EDT time to prevent confusion due to time zone crossing. See the CHH7142 flight status page for this flight to view local times or setup timezone preferences in your user account.

Time Position Orientation Groundspeed Altitude Reporting Facility
EDT Latitude Longitude Course Direction KTS MPH feet Rate Location/Type
10:01AM 30.6593 104.0372 44° Northeast  Level Estimated
10:02AM 30.7400 104.1274 44° Northeast  Level Estimated
10:03AM 30.8206 104.2178 44° Northeast  Level Estimated
10:04AM 30.9012 104.3084 44° Northeast  Level Estimated
10:05AM 30.9817 104.3991 44° Northeast  Level Estimated
10:06AM 31.0622 104.4900 44° Northeast  Level Estimated
10:07AM 31.1426 104.5810 44° Northeast  Level Estimated
10:08AM 31.2229 104.6721 44° Northeast  Level Estimated
10:09AM 31.3031 104.7635 44° Northeast  Level Estimated
10:10AM 31.3833 104.8549 44° Northeast  Level Estimated
10:11AM 31.4635 104.9466 44° Northeast  Level Estimated
10:12AM 31.5435 105.0384 44° Northeast  Level Estimated
10:13AM 31.6235 105.1303 44° Northeast  Level Estimated
10:14AM 31.7034 105.2224 44° Northeast  Level Estimated
10:15AM 31.7833 105.3147 44° Northeast  Level Estimated
10:16AM 31.8631 105.4071 45° Northeast  Level Estimated
10:17AM 31.9429 105.4997 45° Northeast  Level Estimated
10:18AM 32.0225 105.5925 45° Northeast  Level Estimated
10:19AM 32.0941 105.6760 45° Northeast  Level Estimated
10:20AM 32.1656 105.7597 45° Northeast  Level Estimated
10:21AM 32.2371 105.8435 45° Northeast  Level Estimated
10:22AM 32.3085 105.9274 45° Northeast  Level Estimated
10:23AM 32.3799 106.0115 45° Northeast  Level Estimated
10:24AM 32.4512 106.0957 45° Northeast  Level Estimated
10:25AM 32.5224 106.1800 45° Northeast  Level Estimated
10:26AM 32.5936 106.2645 45° Northeast  Level Estimated
10:27AM 32.6648 106.3491 45° Northeast  Level Estimated
10:28AM 32.7358 106.4338 45° Northeast  Level Estimated
10:29AM 32.8069 106.5187 45° Northeast  Level Estimated
10:30AM 32.8778 106.6037 45° Northeast  Level Estimated
10:31AM 32.9487 106.6889 45° Northeast  Level Estimated
10:32AM 33.0196 106.7741 45° Northeast  Level Estimated
10:33AM 33.0904 106.8596 45° Northeast  Level Estimated
10:34AM 33.1611 106.9451 45° Northeast  Level Estimated
10:35AM 33.2318 107.0308 45° Northeast  Level Estimated
10:36AM 33.3024 107.1167 45° Northeast  Level Estimated
10:37AM 33.3730 107.2026 45° Northeast  Level Estimated
10:38AM 33.4435 107.2887 46° Northeast  Level Estimated
10:39AM 33.5139 107.3750 46° Northeast  Level Estimated
10:40AM 33.5843 107.4614 46° Northeast  Level Estimated
10:41AM 33.6546 107.5479 46° Northeast  Level Estimated
10:42AM 33.7248 107.6346 46° Northeast  Level Estimated
10:43AM 33.7950 107.7214 46° Northeast  Level Estimated
10:44AM 33.8652 107.8084 46° Northeast  Level Estimated
10:45AM 33.9352 107.8955 46° Northeast  Level Estimated
10:46AM 34.0053 107.9827 46° Northeast  Level Estimated
10:47AM 34.0752 108.0701 46° Northeast  Level Estimated
10:48AM 34.1451 108.1577 46° Northeast  Level Estimated
10:49AM 34.2149 108.2453 46° Northeast  Level Estimated
10:50AM 34.2847 108.3332 46° Northeast  Level Estimated
10:51AM 34.3544 108.4211 46° Northeast  Level Estimated
10:52AM 34.4240 108.5092 46° Northeast  Level Estimated
10:53AM 34.4936 108.5975 46° Northeast  Level Estimated
10:54AM 34.5631 108.6859 46° Northeast  Level Estimated
10:55AM 34.6326 108.7745 46° Northeast  Level Estimated
10:56AM 34.7020 108.8632 46° Northeast  Level Estimated
10:57AM 34.7713 108.9520 46° Northeast  Level Estimated
10:58AM 34.8405 109.0411 47° Northeast  Level Estimated
10:59AM 34.9097 109.1302 47° Northeast  Level Estimated
11:00AM 34.9789 109.2195 47° Northeast  Level Estimated
11:01AM 35.0479 109.3090 47° Northeast  Level Estimated
11:02AM 35.1169 109.3986 47° Northeast  Level Estimated
11:03AM 35.1858 109.4883 47° Northeast  Level Estimated
11:04AM 35.2547 109.5782 47° Northeast  Level Estimated
11:05AM 35.3235 109.6683 47° Northeast  Level Estimated
11:06AM 35.3922 109.7585 47° Northeast  Level Estimated
11:07AM 35.4609 109.8489 47° Northeast  Level Estimated
11:08AM 35.5295 109.9394 47° Northeast  Level Estimated
11:09AM 35.5980 110.0301 47° Northeast  Level Estimated
11:10AM 35.6665 110.1209 47° Northeast  Level Estimated
11:11AM 35.7348 110.2119 47° Northeast  Level Estimated
11:12AM 35.8032 110.3031 47° Northeast  Level Estimated
11:13AM 35.8714 110.3944 47° Northeast  Level Estimated
11:14AM 35.9396 110.4858 47° Northeast  Level Estimated
11:15AM 36.0077 110.5775 47° Northeast  Level Estimated
11:16AM 36.0757 110.6693 47° Northeast  Level Estimated
11:17AM 36.1437 110.7612 48° Northeast  Level Estimated
11:18AM 36.2116 110.8533 48° Northeast  Level Estimated
11:19AM 36.2795 110.9455 48° Northeast  Level Estimated
11:20AM 36.3472 111.0380 48° Northeast  Level Estimated
11:21AM 36.4149 111.1305 48° Northeast  Level Estimated
11:22AM 36.4825 111.2233 48° Northeast  Level Estimated
11:23AM 36.5501 111.3162 48° Northeast  Level Estimated
11:24AM 36.6175 111.4092 48° Northeast  Level Estimated
11:25AM 36.6850 111.5025 48° Northeast  Level Estimated
11:26AM 36.7523 111.5959 48° Northeast  Level Estimated
11:27AM 36.8195 111.6894 48° Northeast  Level Estimated
11:28AM 36.8867 111.7831 48° Northeast  Level Estimated
11:29AM 36.9538 111.8770 48° Northeast  Level Estimated
11:30AM 37.0209 111.9711 48° Northeast  Level Estimated
11:31AM 37.0878 112.0653 48° Northeast  Level Estimated
11:32AM 37.1547 112.1597 48° Northeast  Level Estimated
11:33AM 37.2215 112.2542 48° Northeast  Level Estimated
11:34AM 37.2882 112.3489 48° Northeast  Level Estimated
11:35AM 37.3549 112.4438 49° Northeast  Level Estimated
11:36AM 37.4215 112.5389 49° Northeast  Level Estimated
11:37AM 37.4880 112.6341 49° Northeast  Level Estimated
11:38AM 37.5544 112.7295 49° Northeast  Level Estimated
11:39AM 37.6208 112.8251 49° Northeast  Level Estimated
11:40AM 37.6871 112.9208 49° Northeast  Level Estimated
11:41AM 37.7533 113.0167 49° Northeast  Level Estimated
11:42AM 37.8194 113.1128 49° Northeast  Level Estimated
11:43AM 37.8854 113.2090 49° Northeast  Level Estimated
11:44AM 37.9514 113.3054 49° Northeast  Level Estimated
11:45AM 38.0173 113.4020 49° Northeast  Level Estimated
11:46AM 38.0831 113.4988 49° Northeast  Level Estimated
11:47AM 38.1488 113.5957 49° Northeast  Level Estimated
11:48AM 38.2145 113.6929 49° Northeast  Level Estimated
11:49AM 38.2820 113.7930 49° Northeast  Level Estimated
11:50AM 38.3494 113.8934 49° Northeast  Level Estimated
11:51AM 38.4167 113.9939 49° Northeast  Level Estimated
11:52AM 38.4840 114.0947 50° Northeast  Level Estimated
11:53AM 38.5511 114.1956 50° Northeast  Level Estimated
11:54AM 38.6182 114.2967 50° Northeast  Level Estimated
11:55AM 38.6852 114.3980 50° Northeast  Level Estimated
11:56AM 38.7521 114.4995 50° Northeast  Level Estimated
11:57AM 38.8189 114.6012 50° Northeast  Level Estimated
11:58AM 38.8857 114.7031 50° Northeast  Level Estimated
11:59AM 38.9523 114.8052 50° Northeast  Level Estimated
12:00PM 39.0188 114.9074 50° Northeast  Level Estimated
12:01PM 39.0853 115.0099 50° Northeast  Level Estimated
12:02PM 39.1517 115.1125 50° Northeast  Level Estimated
12:03PM 39.2179 115.2153 50° Northeast  Level Estimated
12:04PM 39.2841 115.3184 50° Northeast  Level Estimated
12:05PM 39.3502 115.4216 50° Northeast  Level Estimated
12:06PM 39.4162 115.5250 50° Northeast  Level Estimated
12:07PM 39.4822 115.6286 50° Northeast  Level Estimated
12:08PM 39.5480 115.7325 51° Northeast  Level Estimated
12:09PM 39.6137 115.8365 51° Northeast  Level Estimated
12:10PM 39.6794 115.9407 51° Northeast  Level Estimated
12:11PM 39.7449 116.0451 51° Northeast  Level Estimated
12:12PM 39.8103 116.1497 51° Northeast  Level Estimated
12:13PM 39.8757 116.2545 51° Northeast  Level Estimated
12:14PM 39.9410 116.3595 51° Northeast  Level Estimated
12:15PM 40.0061 116.4647 51° Northeast  Level Estimated
12:16PM 40.0712 116.5701 51° Northeast  Level Estimated